Mabel, MN

3:07 PM CDT on April 21, 2015 (GMT -0500)
Spring Grove | | Change Station
CLOSE
Current Station
Personal Weather Station
Location: Minnesota, MN
Elevation: 1335 ft
Nearby Weather Stations
Active Advisory: Wind Advisory Active Notice: Public Information Statement

Elev 1335 ft 43.56 °N, 91.63 °W | Updated 6 seconds ago

Overcast
Overcast
39.0 °F
Feels Like 37 °F
N
3.6
Wind Variable Wind from West
Gusts 9.2 mph

Today
High -- | Low -- °F
--% Chance of Precip.
Yesterday
High -- | Low -- °F
Precip. -- in
6:15 AM 7:57 PM
Waxing Crescent, 12% visible
Pressure 29.65 in
Visibility 10.0 miles
Clouds Mostly Cloudy 3400 ft
Overcast 4300 ft
Windchill 37 °F
Dew Point 23 °F
Humidity 53%
Rainfall 0.00 in
Snow Depth Not available.
UV 2 out of 12
Pollen 10.00 out of 12
Air Quality Not available.
Flu Activity Local Activity
METAR KDEH 211955Z AUTO 29015G27KT 260V320 10SM BKN034 OVC043 04/M03 A2965 RMK AO2

More Conditions Fewer Conditions

Pressure 29.65 in
Visibility 10.0 miles
Clouds Mostly Cloudy 3400 ft
Overcast 4300 ft
Windchill 37 °F
Dew Point 23 °F
Humidity 53%
Rainfall 0.00 in
Snow Depth Not available.
UV 2 out of 12
Pollen 10.00 out of 12
Air Quality Not available.
Flu Activity Local Activity
METAR KDEH 211955Z AUTO 29015G27KT 260V320 10SM BKN034 OVC043 04/M03 A2965 RMK AO2

More Conditions Fewer Conditions

10-Day Weather Forecast

Almanac

Astronomy

Apr. 21, 2015 Rise Set
Actual Time
Civil Twilight
Nautical Twilight
Astronomical Twilight
Moon
Length of Visible Light
Length of Day
Tomorrow will be .
, % of the Moon is Illuminated

Today's Extremes

State Highs State Lows

Community

WunderPhotos

Upload Photos

1,815,526 photos uploaded!

WunderBlogs® & News

Nearby

Air Quality

  Air Quality AQ Index Pollutant
Not available.

Snow Depth

Station Depth Elevation

Earthquake Activity

City Distance Mag. Time & Date
Minimum magnitude displayed is 2.5.

Coastal Water Temperatures

Place Temperature

Stations

Nearby Weather Stations

Station Location Temp. Windchill Dew Point Humidity Wind Precip. Elev Updated Type
                   
Wind Advisory
Statement as of 2:54 PM CDT on April 21, 2015

... Wind Advisory remains in effect until 6 PM CDT this evening...

* northwest winds will increase to 25 to 30 mph by early this
afternoon. Gusts of 40 to 45 mph are expected. Look for the
winds to subside to 15 to 25 mph this evening.

* Strong winds can make driving difficult... especially for high
profile vehicles.

Precautionary/preparedness actions...

A Wind Advisory means that sustained winds of 30 mph or higher...
or gusts over 45 mph... are expected. Use extra caution if you are
driving a high profile vehicle.